首页
METAR-TAF:

METAR-TAF

机场 :

大加那利机场

大加那利岛, 西班牙

纬度: 27-56N, 经度: 015-23W, 海拔: 23米

当前天气观测

该预报发布于25分钟前的05:30 UTC
风速13节,风向
温度 19°C
湿度 64%
气压 1023 hPa
能见度10公里或以上
少量云层高于2500英尺
多云层高于3000英尺

METAR: GCLP 120530Z 01013KT 9999 FEW025 BKN030 19/12 Q1023 NOSIG

时间: 05:55 (05:55 UTC)

预报

该预报发布于3小时和55分钟前的02:00 UTC
预报有效从12日的 03点(UTC)到 13日的 03点(UTC)
风速16节,风向
能见度10公里或以上
散云层高于3500英尺

TAF: GCLP 120200Z 1203/1303 36016KT 9999 SCT035 TX23/1214Z TN17/1206Z

超过4000个机场的气象观测和天气预报(METAR&TAF报告)。

可查询的气象台以黄色和红色小点在地图上表示。

将鼠标移到小点上方,可查看气象台名称。

然后点击查看天气观测和预报。

如需切换地图:点击带黑十字的绿色按钮放大地图;点击带横线的绿色按钮缩小地图;或者点击绿色箭头查看邻近地区的地图。


METAR-TAF: